Time;durP1;ratioP1;P1;durP2;ratioP2;P2;SDS_P1;SDS_P2;PMS_P1;PMS_P2;Temp;Humidity;BMP_temperature;BMP_pressure;BME280_temperature;BME280_humidity;BME280_pressure;Samples;Min_cycle;Max_cycle;Signal;HPM_P1;HPM_P2
2022/02/03 00:05:08;;;;;;;15.25;8.25;;;7.50;99.90;;;;;;5034383;28;20025;-41
2022/02/03 00:08:01;;;;;;;24.40;9.80;;;7.50;99.90;;;;;;5034297;28;20109;-41
2022/02/03 00:10:39;;;;;;;12.65;7.63;;;7.50;99.90;;;;;;5034292;28;20484;-43
2022/02/03 00:16:30;;;;;;;25.03;12.43;;;7.50;99.90;;;;;;5035039;28;20024;-44
2022/02/03 00:22:05;;;;;;;16.33;8.63;;;7.60;99.90;;;;;;5032902;28;20082;-44
2022/02/03 00:24:45;;;;;;;14.68;8.13;;;7.60;99.90;;;;;;5033456;28;20029;-44
2022/02/03 00:30:18;;;;;;;14.60;9.15;;;7.60;99.90;;;;;;5034462;28;20477;-44
2022/02/03 00:48:55;;;;;;;14.95;9.75;;;7.70;99.90;;;;;;5033615;28;20037;-42
2022/02/03 00:51:21;;;;;;;15.88;10.02;;;7.70;99.90;;;;;;5033462;28;20138;-41
2022/02/03 00:53:47;;;;;;;15.18;9.57;;;7.70;99.90;;;;;;5033496;28;20374;-42
2022/02/03 00:56:24;;;;;;;14.73;9.55;;;7.70;99.90;;;;;;5033354;28;20030;-43
2022/02/03 00:59:01;;;;;;;16.10;9.52;;;7.70;99.90;;;;;;5032911;28;20397;-43
2022/02/03 01:01:32;;;;;;;17.92;10.15;;;7.70;99.90;;;;;;5033079;28;20029;-42
2022/02/03 01:04:04;;;;;;;20.30;9.30;;;7.70;99.90;;;;;;5032686;28;20033;-45
2022/02/03 01:06:33;;;;;;;16.08;9.68;;;7.70;99.90;;;;;;5032897;28;20013;-47
2022/02/03 01:08:59;;;;;;;18.45;10.55;;;7.70;99.90;;;;;;5034157;28;20022;-45
2022/02/03 01:11:35;;;;;;;17.25;10.40;;;7.60;99.90;;;;;;5033030;28;20025;-46
2022/02/03 01:14:13;;;;;;;18.25;11.27;;;7.60;99.90;;;;;;5032779;28;20283;-44
2022/02/03 01:43:52;;;;;;;20.70;15.18;;;7.60;99.90;;;;;;5032338;28;20032;-43
2022/02/03 01:46:28;;;;;;;21.02;14.93;;;7.70;99.90;;;;;;5032403;28;20025;-43
2022/02/03 01:49:11;;;;;;;;;;;7.70;99.90;;;;;;5035386;28;20071;-43
2022/02/03 01:51:54;;;;;;;26.30;15.60;;;7.70;99.90;;;;;;5041994;28;19912;-43
2022/02/03 01:54:26;;;;;;;23.65;16.73;;;7.70;99.90;;;;;;5042198;28;20024;-42
2022/02/03 01:57:07;;;;;;;21.92;15.95;;;7.60;99.90;;;;;;5041248;28;20029;-43
2022/02/03 01:59:35;;;;;;;24.77;17.25;;;7.70;99.90;;;;;;5041088;28;20168;-43
2022/02/03 02:02:04;;;;;;;24.48;18.02;;;7.70;99.90;;;;;;5040712;28;20430;-47
2022/02/03 02:05:26;;;;;;;25.58;17.90;;;7.70;99.90;;;;;;5040575;28;20067;-43
2022/02/03 02:11:30;;;;;;;24.00;18.23;;;7.70;99.90;;;;;;5049854;28;20024;-42
2022/02/03 02:19:28;;;;;;;29.77;20.92;;;7.60;99.90;;;;;;5050603;28;20033;-43
2022/02/03 02:39:10;;;;;;;32.08;19.83;;;7.70;99.90;;;;;;5051461;28;20071;-44
2022/02/03 02:45:03;;;;;;;30.60;20.30;;;7.80;99.90;;;;;;5051048;28;20074;-45
2022/02/03 02:47:40;;;;;;;32.55;19.80;;;7.80;99.90;;;;;;5055420;28;20021;-45
2022/02/03 02:50:21;;;;;;;37.40;22.10;;;7.70;99.90;;;;;;5055436;28;20488;-45
2022/02/03 02:53:10;;;;;;;30.65;20.75;;;7.70;99.90;;;;;;5055281;28;20025;-43
2022/02/03 02:55:59;;;;;;;35.28;21.80;;;7.70;99.90;;;;;;5055379;28;20028;-44
2022/02/03 02:58:54;;;;;;;34.05;22.55;;;7.70;99.90;;;;;;5055264;28;20392;-43
2022/02/03 03:28:57;;;;;;;72.60;42.40;;;7.60;99.90;;;;;;5054997;28;20082;-44
2022/02/03 03:35:15;;;;;;;37.15;21.50;;;7.90;99.90;;;;;;5054439;28;20531;-43
2022/02/03 03:37:46;;;;;;;34.63;22.48;;;7.90;99.90;;;;;;5054710;28;20021;-43
2022/02/03 03:40:14;;;;;;;33.53;21.65;;;7.80;99.90;;;;;;5054439;28;20124;-43
2022/02/03 03:42:49;;;;;;;33.25;22.05;;;7.80;99.90;;;;;;5053913;28;20025;-41
2022/02/03 03:45:16;;;;;;;;;;;7.80;99.90;;;;;;5053579;28;20078;-43
2022/02/03 03:47:46;;;;;;;32.97;22.00;;;7.80;99.90;;;;;;5054433;28;20075;-43
2022/02/03 03:50:17;;;;;;;34.17;21.75;;;7.90;99.90;;;;;;5054489;28;20029;-44
2022/02/03 03:52:59;;;;;;;42.78;24.23;;;7.80;99.90;;;;;;5054110;28;20460;-41
2022/02/03 03:55:39;;;;;;;32.92;21.40;;;7.90;99.90;;;;;;5054280;28;20017;-41
2022/02/03 03:58:51;;;;;;;33.83;21.88;;;7.90;99.90;;;;;;5054148;28;20128;-45
2022/02/03 04:39:50;;;;;;;24.90;17.67;;;8.00;99.90;;;;;;5052518;28;20082;-43
2022/02/03 04:42:39;;;;;;;;;;;8.10;99.90;;;;;;5052357;28;20029;-42
2022/02/03 04:46:01;;;;;;;21.80;14.80;;;8.10;99.90;;;;;;5051862;28;19915;-44
2022/02/03 05:03:04;;;;;;;17.50;12.70;;;8.20;99.90;;;;;;5052080;28;20507;-43
2022/02/03 05:11:35;;;;;;;17.10;11.70;;;8.20;99.90;;;;;;5051968;28;20029;-43
2022/02/03 05:20:41;;;;;;;13.98;9.82;;;8.30;99.90;;;;;;5017102;28;1018917;-42
2022/02/03 05:24:06;;;;;;;20.42;11.43;;;8.40;99.90;;;;;;5052438;28;20021;-46
2022/02/03 06:01:58;;;;;;;17.85;12.15;;;8.20;99.90;;;;;;5051864;28;20461;-45
2022/02/03 06:11:52;;;;;;;15.73;10.95;;;8.20;99.90;;;;;;5051930;28;20021;-43
2022/02/03 06:12:49;;;;;;;14.85;11.52;;;8.20;99.90;;;;;;5051525;28;20035;-44
2022/02/03 06:15:19;;;;;;;16.40;10.85;;;8.20;99.90;;;;;;5051585;28;20036;-44
2022/02/03 06:29:23;;;;;;;13.60;9.93;;;8.30;99.90;;;;;;5051919;28;20120;-43
2022/02/03 06:31:51;;;;;;;14.25;10.00;;;8.30;99.90;;;;;;5051773;28;20025;-42
2022/02/03 06:34:18;;;;;;;16.20;10.40;;;8.40;99.90;;;;;;5051360;28;20385;-43
2022/02/03 06:36:45;;;;;;;18.42;10.23;;;8.30;99.90;;;;;;5050235;28;20064;-44
2022/02/03 06:39:23;;;;;;;15.57;10.32;;;8.30;99.90;;;;;;5051485;28;20408;-43
2022/02/03 06:41:53;;;;;;;14.30;10.65;;;8.20;99.90;;;;;;5051152;28;20025;-45
2022/02/03 06:44:22;;;;;;;15.40;10.55;;;8.20;99.90;;;;;;5051325;28;20104;-45
2022/02/03 06:46:51;;;;;;;15.55;10.43;;;8.20;99.90;;;;;;5051645;28;20021;-43
2022/02/03 06:49:37;;;;;;;14.80;10.73;;;8.20;99.90;;;;;;5051544;28;20017;-43
2022/02/03 06:52:10;;;;;;;;;;;8.30;99.90;;;;;;5051835;28;20036;-44
2022/02/03 06:54:56;;;;;;;15.70;11.13;;;8.30;99.90;;;;;;5051045;28;20029;-44
2022/02/03 06:57:31;;;;;;;14.30;10.52;;;8.30;99.90;;;;;;5051157;28;20025;-44
2022/02/03 07:00:03;;;;;;;14.27;10.60;;;8.30;99.90;;;;;;5051217;28;20118;-44
2022/02/03 07:02:32;;;;;;;16.17;11.70;;;8.40;99.90;;;;;;5051711;28;20032;-43
2022/02/03 07:04:58;;;;;;;17.67;12.00;;;8.40;99.90;;;;;;5050933;28;20024;-43
2022/02/03 07:07:25;;;;;;;14.15;10.98;;;8.30;99.90;;;;;;5051242;28;20021;-46
2022/02/03 07:09:52;;;;;;;14.98;10.45;;;8.30;99.90;;;;;;5048902;22;20420;-41
2022/02/03 07:12:19;;;;;;;16.38;11.18;;;8.30;99.90;;;;;;5012613;28;20030;-42
2022/02/03 07:14:45;;;;;;;17.10;11.77;;;8.40;99.90;;;;;;5012561;28;20038;-44
2022/02/03 07:17:10;;;;;;;16.67;10.32;;;8.30;99.90;;;;;;5011870;28;20037;-41
2022/02/03 07:19:42;;;;;;;16.55;11.48;;;8.30;99.90;;;;;;5010090;28;20030;-43
2022/02/03 07:22:08;;;;;;;15.98;10.48;;;8.40;99.90;;;;;;5011568;28;20018;-44
2022/02/03 07:24:33;;;;;;;12.35;9.07;;;8.40;99.90;;;;;;5012679;28;20045;-43
2022/02/03 07:27:00;;;;;;;15.82;10.32;;;8.40;99.90;;;;;;5012392;28;20108;-42
2022/02/03 07:29:26;;;;;;;14.88;10.65;;;8.40;99.90;;;;;;5011741;28;20021;-43
2022/02/03 07:31:51;;;;;;;15.07;10.77;;;8.40;99.90;;;;;;5013289;28;20448;-41
2022/02/03 07:34:18;;;;;;;17.90;11.48;;;8.40;99.90;;;;;;5014844;28;20057;-43
2022/02/03 07:36:45;;;;;;;13.93;10.52;;;8.40;99.90;;;;;;5015024;28;20029;-41
2022/02/03 07:39:11;;;;;;;13.35;10.40;;;8.40;99.90;;;;;;5015660;28;20025;-42
2022/02/03 07:41:37;;;;;;;13.63;10.77;;;8.40;99.90;;;;;;5014912;28;20382;-40
2022/02/03 07:44:03;;;;;;;12.80;9.90;;;8.40;99.90;;;;;;5013653;28;20038;-42
2022/02/03 07:46:32;;;;;;;16.77;10.95;;;8.40;99.90;;;;;;5015230;28;20053;-42
2022/02/03 07:48:58;;;;;;;14.63;11.02;;;8.40;99.90;;;;;;5015079;28;20029;-42
2022/02/03 07:51:24;;;;;;;17.05;12.40;;;8.40;99.90;;;;;;5013837;28;20022;-44
2022/02/03 07:53:49;;;;;;;16.80;10.57;;;8.40;99.90;;;;;;5015166;28;20037;-41
2022/02/03 07:56:15;;;;;;;17.42;11.60;;;8.40;99.90;;;;;;5015319;28;20038;-42
2022/02/03 07:58:41;;;;;;;17.50;11.50;;;8.40;99.90;;;;;;5014965;28;20029;-42
2022/02/03 08:01:07;;;;;;;15.45;11.20;;;8.40;99.90;;;;;;5014806;28;20034;-41
2022/02/03 08:03:32;;;;;;;16.80;11.07;;;8.40;99.90;;;;;;5013462;28;20032;-43
2022/02/03 08:06:03;;;;;;;16.95;11.00;;;8.40;99.90;;;;;;5015024;28;20105;-41
2022/02/03 08:08:37;;;;;;;12.73;10.68;;;8.40;99.90;;;;;;5015451;28;20017;-42
2022/02/03 08:11:08;;;;;;;14.00;10.10;;;8.40;99.90;;;;;;5015177;28;20440;-41
2022/02/03 08:13:37;;;;;;;13.88;9.95;;;8.40;99.90;;;;;;5014876;28;20106;-41
2022/02/03 08:16:19;;;;;;;13.45;10.25;;;8.40;99.90;;;;;;5015190;28;20497;-42
2022/02/03 08:18:49;;;;;;;14.57;10.25;;;8.40;99.90;;;;;;5014955;28;20166;-42
2022/02/03 08:21:17;;;;;;;16.55;10.75;;;8.40;99.90;;;;;;5015496;28;20049;-42
2022/02/03 08:31:31;;;;;;;12.95;9.32;;;8.50;99.90;;;;;;5014696;28;20026;-45
2022/02/03 08:33:57;;;;;;;12.52;9.40;;;8.40;99.90;;;;;;5014465;28;20022;-43
2022/02/03 08:36:25;;;;;;;12.98;8.93;;;8.40;99.90;;;;;;5014295;28;20570;-45
2022/02/03 08:38:55;;;;;;;11.13;8.80;;;8.50;99.90;;;;;;5009520;28;20022;-42
2022/02/03 08:41:23;;;;;;;13.23;9.13;;;8.50;99.90;;;;;;5013113;28;20050;-46
2022/02/03 08:43:49;;;;;;;14.98;9.15;;;8.50;99.90;;;;;;5013324;28;20509;-45
2022/02/03 08:46:15;;;;;;;17.40;9.25;;;8.50;99.90;;;;;;4996322;28;20018;-45
2022/02/03 08:48:41;;;;;;;13.90;9.00;;;8.60;99.90;;;;;;4994851;28;20026;-43
2022/02/03 08:51:08;;;;;;;13.77;10.02;;;8.60;99.90;;;;;;5005106;28;20028;-43
2022/02/03 08:53:42;;;;;;;15.13;8.73;;;8.60;99.90;;;;;;5001666;28;20026;-45
2022/02/03 08:56:21;;;;;;;16.38;9.00;;;8.70;99.90;;;;;;4996172;28;20022;-45
2022/02/03 09:39:07;;;;;;;13.30;8.93;;;9.00;99.90;;;;;;5006349;28;20164;-41
2022/02/03 09:42:00;;;;;;;11.13;7.47;;;9.00;99.90;;;;;;5007609;28;20038;-42
2022/02/03 09:50:31;;;;;;;10.15;7.95;;;9.00;99.90;;;;;;5012664;28;20109;-45
2022/02/03 09:53:24;;;;;;;11.75;7.80;;;9.00;99.90;;;;;;5012406;28;20080;-43
2022/02/03 09:56:23;;;;;;;10.07;7.35;;;9.10;99.90;;;;;;5011653;28;20028;-42
2022/02/03 10:01:39;;;;;;;10.55;7.97;;;9.10;99.90;;;;;;5012578;28;20026;-43
2022/02/03 10:04:18;;;;;;;13.93;7.88;;;9.10;99.90;;;;;;5012280;28;20141;-44
2022/02/03 10:06:59;;;;;;;9.70;7.22;;;9.20;99.90;;;;;;5012666;28;20022;-46
2022/02/03 10:09:38;;;;;;;8.52;6.70;;;9.20;99.90;;;;;;5013368;28;20036;-43
2022/02/03 10:12:04;;;;;;;11.40;7.53;;;9.20;99.90;;;;;;5012562;28;20447;-45
2022/02/03 10:14:32;;;;;;;8.77;6.78;;;9.20;99.90;;;;;;5012279;28;20049;-45
2022/02/03 10:16:59;;;;;;;8.27;6.45;;;9.10;99.90;;;;;;5012745;28;20022;-46
2022/02/03 10:19:31;;;;;;;7.75;5.90;;;9.10;99.90;;;;;;5012322;28;20044;-43
2022/02/03 10:21:57;;;;;;;8.50;6.13;;;9.10;99.90;;;;;;5012328;28;20033;-46
2022/02/03 10:24:28;;;;;;;5.65;4.53;;;9.10;99.90;;;;;;5012136;28;20030;-45
2022/02/03 10:26:56;;;;;;;5.10;4.53;;;9.20;99.90;;;;;;5009625;28;20030;-44
2022/02/03 10:29:31;;;;;;;6.43;5.10;;;9.30;99.90;;;;;;4992378;28;20030;-40
2022/02/03 10:31:57;;;;;;;5.40;3.47;;;9.40;99.90;;;;;;5010470;28;20386;-42
2022/02/03 10:34:29;;;;;;;4.47;3.33;;;9.50;99.90;;;;;;5010802;28;20044;-48
2022/02/03 10:37:26;;;;;;;4.63;2.80;;;9.50;99.90;;;;;;5011565;28;20084;-44
2022/02/03 10:40:23;;;;;;;;;;;9.50;99.90;;;;;;5013960;28;20127;-43
2022/02/03 10:51:12;;;;;;;3.05;2.33;;;9.60;99.90;;;;;;4996690;28;20523;-46
2022/02/03 10:53:52;;;;;;;5.75;3.25;;;9.60;99.90;;;;;;5012245;28;20065;-45
2022/02/03 10:56:39;;;;;;;3.72;3.22;;;9.60;99.90;;;;;;5012036;28;20018;-45
2022/02/03 11:02:07;;;;;;;6.00;3.80;;;9.60;99.90;;;;;;5010644;28;20497;-45
2022/02/03 11:05:12;;;;;;;6.35;3.83;;;9.60;99.90;;;;;;5008957;28;20038;-46
2022/02/03 11:07:36;;;;;;;4.00;3.60;;;9.50;99.90;;;;;;5014259;28;20030;-45
2022/02/03 11:10:14;;;;;;;3.90;3.20;;;9.60;99.90;;;;;;5015562;28;20080;-50
2022/02/03 11:12:42;;;;;;;3.58;3.25;;;9.60;99.90;;;;;;5015964;28;20022;-43
2022/02/03 11:15:10;;;;;;;4.72;3.70;;;9.60;99.90;;;;;;5016767;28;20026;-45
2022/02/03 11:17:37;;;;;;;5.00;3.15;;;9.60;99.90;;;;;;5017053;28;20515;-43
2022/02/03 11:20:05;;;;;;;4.18;3.30;;;9.70;99.90;;;;;;5003714;28;20511;-44
2022/02/03 11:22:44;;;;;;;3.47;3.17;;;9.60;99.90;;;;;;4996778;28;20026;-47
2022/02/03 11:26:02;;;;;;;3.60;3.22;;;9.70;99.90;;;;;;4998324;28;20030;-44
2022/02/03 11:36:59;;;;;;;3.45;2.80;;;9.80;99.90;;;;;;5015683;28;20026;-44
2022/02/03 11:47:13;;;;;;;4.50;2.35;;;9.90;99.90;;;;;;5015717;28;20105;-44
2022/02/03 12:03:27;;;;;;;2.23;1.47;;;10.10;99.90;;;;;;5014745;28;20034;-45
2022/02/03 12:21:58;;;;;;;;;;;9.80;99.90;;;;;;5012798;28;20553;-44
2022/02/03 12:24:46;;;;;;;1.40;1.15;;;9.80;99.90;;;;;;4999458;28;19960;-45
2022/02/03 12:27:35;;;;;;;1.17;1.17;;;9.80;99.90;;;;;;5011411;28;20061;-43
2022/02/03 12:30:14;;;;;;;0.90;0.90;;;9.80;99.90;;;;;;5013693;28;20021;-46
2022/02/03 12:38:35;;;;;;;0.90;0.88;;;9.90;99.90;;;;;;4996248;28;20040;-45
2022/02/03 12:41:11;;;;;;;1.00;0.88;;;9.80;99.90;;;;;;5013652;28;20104;-47
2022/02/03 12:43:39;;;;;;;1.00;0.70;;;9.90;99.90;;;;;;5012672;28;20033;-41
2022/02/03 12:46:06;;;;;;;0.90;0.90;;;9.80;99.90;;;;;;5012904;28;20026;-44
2022/02/03 12:48:35;;;;;;;1.10;1.10;;;9.80;99.90;;;;;;5010062;28;20022;-44
2022/02/03 12:51:01;;;;;;;0.80;0.80;;;9.90;99.90;;;;;;5013661;28;20149;-43
2022/02/03 12:53:44;;;;;;;0.70;0.70;;;9.90;99.90;;;;;;5013315;28;20021;-45
2022/02/03 12:56:11;;;;;;;6.55;1.05;;;9.90;99.90;;;;;;5001717;28;20035;-47
2022/02/03 12:58:43;;;;;;;1.10;0.98;;;9.90;99.90;;;;;;5013074;28;20028;-43
2022/02/03 13:01:15;;;;;;;1.30;1.05;;;9.90;99.90;;;;;;5014211;28;20101;-45
2022/02/03 13:03:47;;;;;;;1.42;1.25;;;9.90;99.90;;;;;;5013053;28;20025;-43
2022/02/03 13:06:17;;;;;;;2.42;0.93;;;9.90;99.90;;;;;;5011233;28;20064;-48
2022/02/03 13:08:58;;;;;;;0.90;0.90;;;9.90;99.90;;;;;;5012872;28;20486;-48
2022/02/03 13:11:32;;;;;;;1.60;1.20;;;9.90;99.90;;;;;;5028537;22;20046;-48
2022/02/03 13:14:16;;;;;;;3.63;1.60;;;10.00;99.90;;;;;;5027733;28;20022;-44
2022/02/03 13:16:54;;;;;;;9.93;2.47;;;10.00;99.90;;;;;;5013393;28;20026;-46
2022/02/03 13:19:54;;;;;;;1.17;1.08;;;10.00;99.90;;;;;;5013166;28;20393;-46
2022/02/03 13:22:28;;;;;;;3.03;1.75;;;10.00;99.90;;;;;;5012733;28;20498;-49
2022/02/03 13:25:12;;;;;;;1.20;1.10;;;10.00;99.90;;;;;;5012562;28;20116;-50
2022/02/03 13:27:51;;;;;;;1.20;1.00;;;10.00;99.90;;;;;;5013007;28;20018;-46
2022/02/03 13:30:52;;;;;;;5.53;1.02;;;9.90;99.90;;;;;;5012533;28;20030;-46
2022/02/03 13:33:24;;;;;;;2.47;1.30;;;9.80;99.90;;;;;;5012836;28;20371;-48
2022/02/03 13:38:37;;;;;;;1.15;1.05;;;9.90;99.90;;;;;;5013115;28;20067;-49
2022/02/03 13:41:11;;;;;;;1.40;1.00;;;10.00;99.90;;;;;;5012888;28;20393;-46
2022/02/03 13:43:42;;;;;;;1.60;1.50;;;10.00;99.90;;;;;;5011600;28;20436;-48
2022/02/03 13:46:09;;;;;;;1.10;1.10;;;10.00;99.90;;;;;;5013031;28;20046;-46
2022/02/03 13:48:37;;;;;;;2.45;1.33;;;10.00;99.90;;;;;;5011404;28;20028;-45
2022/02/03 13:51:04;;;;;;;1.00;1.00;;;9.90;99.90;;;;;;5012656;28;20413;-48
2022/02/03 13:54:00;;;;;;;2.83;1.60;;;10.00;99.90;;;;;;5011093;28;20026;-47
2022/02/03 14:29:15;;;;;;;1.40;1.30;;;9.80;99.90;;;;;;5012429;28;20414;-50
2022/02/03 14:31:42;;;;;;;1.58;1.48;;;9.80;99.90;;;;;;5011948;28;20423;-47
2022/02/03 14:34:13;;;;;;;1.70;1.60;;;9.80;99.90;;;;;;5011697;28;20421;-46
2022/02/03 14:36:42;;;;;;;1.55;1.00;;;9.80;99.90;;;;;;5012042;28;20052;-47
2022/02/03 14:41:44;;;;;;;4.57;3.17;;;9.80;99.90;;;;;;5011015;28;20529;-48
2022/02/03 14:44:09;;;;;;;4.97;3.90;;;9.70;99.90;;;;;;5011640;28;20116;-49
2022/02/03 14:46:35;;;;;;;5.88;4.78;;;9.60;99.90;;;;;;5011931;28;20054;-46
2022/02/03 14:49:00;;;;;;;5.05;4.65;;;9.50;99.90;;;;;;5012076;28;20022;-47
2022/02/03 14:51:32;;;;;;;6.07;4.88;;;9.50;99.90;;;;;;5012252;28;20069;-46
2022/02/03 14:58:01;;;;;;;6.35;5.10;;;9.40;99.90;;;;;;5012000;28;20084;-49
2022/02/03 14:59:27;;;;;;;6.85;5.30;;;9.30;99.90;;;;;;5011995;28;20045;-46
2022/02/03 15:01:53;;;;;;;8.65;5.63;;;9.30;99.90;;;;;;5012347;28;20034;-49
2022/02/03 15:04:26;;;;;;;7.57;5.78;;;9.20;99.90;;;;;;5011323;28;20513;-48
2022/02/03 15:06:59;;;;;;;7.30;5.97;;;9.20;99.90;;;;;;5010467;28;20048;-52
2022/02/03 15:12:58;;;;;;;7.55;5.75;;;9.20;99.90;;;;;;5011700;28;20026;-47
2022/02/03 15:15:00;;;;;;;6.88;5.57;;;9.10;99.90;;;;;;5003843;28;20493;-46
2022/02/03 15:17:26;;;;;;;9.07;5.90;;;9.10;99.90;;;;;;5011676;28;20022;-46
2022/02/03 15:19:52;;;;;;;6.55;5.53;;;9.20;99.90;;;;;;5011667;28;20033;-46
2022/02/03 15:22:18;;;;;;;7.15;5.53;;;9.10;99.90;;;;;;5010323;28;20030;-41
2022/02/03 15:24:43;;;;;;;6.15;5.32;;;9.10;99.90;;;;;;5010913;28;20033;-48
2022/02/03 15:27:10;;;;;;;6.60;5.03;;;9.10;99.90;;;;;;5011542;28;20040;-47
2022/02/03 15:29:35;;;;;;;7.30;5.50;;;9.10;99.90;;;;;;5011384;28;20044;-50
2022/02/03 15:32:02;;;;;;;18.70;12.50;;;9.00;99.90;;;;;;5012069;28;20026;-47
2022/02/03 15:34:27;;;;;;;4.93;4.10;;;9.00;99.90;;;;;;5011409;28;20405;-46
2022/02/03 15:36:56;;;;;;;4.97;4.30;;;8.90;99.90;;;;;;5011525;28;20032;-46
2022/02/03 15:39:31;;;;;;;3.78;3.47;;;8.90;99.90;;;;;;5010095;28;20030;-46
2022/02/03 15:41:57;;;;;;;3.22;3.00;;;8.90;99.90;;;;;;5011512;28;20036;-49
2022/02/03 15:44:24;;;;;;;4.55;3.15;;;8.90;99.90;;;;;;5010894;28;20397;-46
2022/02/03 15:47:03;;;;;;;4.85;2.75;;;8.80;99.90;;;;;;5010195;28;20145;-50
2022/02/03 15:50:10;;;;;;;4.53;3.05;;;8.80;99.90;;;;;;5011135;28;20025;-50
2022/02/03 15:58:44;;;;;;;2.88;2.67;;;8.80;99.90;;;;;;5014960;28;20112;-47
2022/02/03 16:01:19;;;;;;;2.75;2.50;;;8.70;99.90;;;;;;5015356;28;20032;-45
2022/02/03 16:17:08;;;;;;;2.90;2.70;;;8.70;99.90;;;;;;5014519;28;20030;-48
2022/02/03 16:19:48;;;;;;;3.13;2.83;;;8.70;99.90;;;;;;5014224;28;20129;-48
2022/02/03 16:22:28;;;;;;;4.40;2.92;;;8.60;99.90;;;;;;5014359;28;20032;-49
2022/02/03 16:50:20;;;;;;;4.70;4.22;;;8.70;99.90;;;;;;5008465;28;20033;-52
2022/02/03 16:54:27;;;;;;;4.82;4.43;;;8.70;99.90;;;;;;5013111;28;20449;-46
2022/02/03 16:56:58;;;;;;;6.00;4.07;;;8.60;99.90;;;;;;5013369;28;20080;-48
2022/02/03 16:59:24;;;;;;;5.88;4.97;;;8.60;99.90;;;;;;5012815;28;20029;-47
2022/02/03 17:01:50;;;;;;;5.93;4.90;;;8.50;99.90;;;;;;5013590;28;20028;-49
2022/02/03 17:04:18;;;;;;;21.17;13.85;;;8.50;99.90;;;;;;5011911;28;20412;-47
2022/02/03 17:06:47;;;;;;;6.75;5.28;;;8.40;99.90;;;;;;5013648;28;20018;-48
2022/02/03 17:09:13;;;;;;;6.05;5.40;;;8.50;99.90;;;;;;5013794;28;20018;-51
2022/02/03 17:11:39;;;;;;;5.50;4.88;;;8.50;99.90;;;;;;5012158;28;20029;-50
2022/02/03 17:14:05;;;;;;;4.85;4.43;;;8.50;99.90;;;;;;5012758;28;20030;-50
2022/02/03 17:16:30;;;;;;;5.68;4.78;;;8.40;99.90;;;;;;5013081;28;20037;-47
2022/02/03 17:18:57;;;;;;;5.20;4.53;;;8.50;99.90;;;;;;5013218;28;20025;-46
2022/02/03 17:21:26;;;;;;;5.07;4.57;;;8.60;99.90;;;;;;5012993;28;20080;-50
2022/02/03 17:23:52;;;;;;;5.45;4.95;;;8.60;99.90;;;;;;5011715;28;20112;-45
2022/02/03 17:26:34;;;;;;;5.53;4.68;;;8.60;99.90;;;;;;5012856;28;20183;-48
2022/02/03 17:29:16;;;;;;;4.68;4.28;;;8.60;99.90;;;;;;5013126;28;20107;-46
2022/02/03 18:07:16;;;;;;;7.28;5.53;;;8.50;99.90;;;;;;5012136;28;20101;-47
2022/02/03 18:17:48;;;;;;;6.50;5.60;;;8.50;99.90;;;;;;5010688;28;20045;-54
2022/02/03 18:25:51;;;;;;;5.47;4.78;;;8.50;99.90;;;;;;5011195;28;20504;-46
2022/02/03 18:26:10;;;;;;;7.03;5.68;;;8.40;99.90;;;;;;5009973;28;20417;-44
2022/02/03 18:34:39;;;;;;;5.35;4.85;;;8.40;99.90;;;;;;4996208;28;20072;-43
2022/02/03 18:37:31;;;;;;;5.57;4.63;;;8.50;99.90;;;;;;5008085;28;20121;-45
2022/02/03 18:49:18;;;;;;;8.13;5.25;;;8.50;99.90;;;;;;5008798;28;20072;-51
2022/02/03 18:56:10;;;;;;;6.88;5.40;;;8.60;99.90;;;;;;5008772;28;20042;-43
2022/02/03 18:58:48;;;;;;;7.53;5.85;;;8.60;99.90;;;;;;5008410;28;20044;-45
2022/02/03 20:05:47;;;;;;;8.98;7.03;;;8.50;99.90;;;;;;5008757;28;20034;-46
2022/02/03 20:08:20;;;;;;;12.20;7.18;;;8.40;99.90;;;;;;5011321;28;20393;-48
2022/02/03 20:10:48;;;;;;;7.80;6.78;;;8.50;99.90;;;;;;5011074;28;20390;-44
2022/02/03 20:13:14;;;;;;;8.98;6.25;;;8.50;99.90;;;;;;5007329;28;20022;-50
2022/02/03 20:15:42;;;;;;;9.50;6.32;;;8.50;99.90;;;;;;5006550;28;20108;-48
2022/02/03 20:18:12;;;;;;;5.25;4.68;;;8.50;99.90;;;;;;5010996;28;20428;-51
2022/02/03 20:20:42;;;;;;;7.85;6.00;;;8.50;99.90;;;;;;5009150;28;20121;-51
2022/02/03 20:23:12;;;;;;;7.47;5.97;;;8.50;99.90;;;;;;4989510;28;20393;-50
2022/02/03 20:25:41;;;;;;;6.75;5.47;;;8.40;99.90;;;;;;4999047;28;20030;-49
2022/02/03 20:28:07;;;;;;;6.45;5.72;;;8.40;99.90;;;;;;5010650;28;20083;-51
2022/02/03 20:30:34;;;;;;;6.22;5.47;;;8.40;99.90;;;;;;5010455;28;20058;-52
2022/02/03 20:33:00;;;;;;;4.95;4.45;;;8.50;99.90;;;;;;5010370;28;20205;-51
2022/02/03 20:35:26;;;;;;;5.35;4.55;;;8.50;99.90;;;;;;5008981;28;20084;-49
2022/02/03 20:37:52;;;;;;;5.82;4.18;;;8.50;99.90;;;;;;5010099;28;20141;-48
2022/02/03 20:40:17;;;;;;;8.40;4.72;;;8.50;99.90;;;;;;5010318;28;20140;-46
2022/02/03 20:42:43;;;;;;;5.68;4.78;;;8.40;99.90;;;;;;5010361;28;20038;-42
2022/02/03 20:45:10;;;;;;;4.85;4.30;;;8.30;99.90;;;;;;5010212;28;20045;-46
2022/02/03 20:47:36;;;;;;;5.68;4.85;;;8.30;99.90;;;;;;5010439;28;20029;-46
2022/02/03 20:50:06;;;;;;;4.90;4.40;;;8.30;99.90;;;;;;5009836;28;20034;-45
2022/02/03 20:52:31;;;;;;;6.85;4.75;;;8.30;99.90;;;;;;5009133;28;20034;-51
2022/02/03 20:54:57;;;;;;;6.40;5.15;;;8.30;99.90;;;;;;5004556;28;20472;-47
2022/02/03 20:57:23;;;;;;;8.13;5.18;;;8.20;99.90;;;;;;5011143;28;20378;-48
2022/02/03 21:00:13;;;;;;;7.07;5.63;;;8.20;99.90;;;;;;5010142;28;20022;-51
2022/02/03 21:05:15;;;;;;;5.95;5.32;;;8.20;99.90;;;;;;5010724;28;20033;-50
2022/02/03 21:07:45;;;;;;;8.38;6.07;;;8.20;99.90;;;;;;5008763;28;20022;-48
2022/02/03 21:10:15;;;;;;;7.53;6.35;;;8.20;99.90;;;;;;5012676;28;20112;-45
2022/02/03 21:12:41;;;;;;;9.00;6.30;;;8.10;99.90;;;;;;5012525;28;20022;-50
2022/02/03 21:15:09;;;;;;;6.60;6.00;;;8.10;99.90;;;;;;5009790;28;20371;-47
2022/02/03 21:17:35;;;;;;;8.77;6.43;;;8.10;99.90;;;;;;5007593;28;20038;-51
2022/02/03 21:20:08;;;;;;;7.15;5.68;;;8.10;99.90;;;;;;5008643;28;20413;-49
2022/02/03 21:22:37;;;;;;;7.07;6.35;;;8.10;99.90;;;;;;5008370;28;20026;-50
2022/02/03 21:25:14;;;;;;;8.27;6.30;;;8.10;99.90;;;;;;5005080;28;20030;-46
2022/02/03 21:27:39;;;;;;;7.47;6.40;;;8.20;99.90;;;;;;5009812;28;20098;-46
2022/02/03 21:30:07;;;;;;;7.90;6.60;;;8.10;99.90;;;;;;5008578;28;20038;-47
2022/02/03 21:32:33;;;;;;;9.07;7.32;;;8.20;99.90;;;;;;4992725;28;20465;-52
2022/02/03 21:34:58;;;;;;;7.43;6.28;;;8.20;99.90;;;;;;4988658;28;20070;-47
2022/02/03 21:37:24;;;;;;;11.95;7.55;;;8.20;99.90;;;;;;4989618;28;20128;-44
2022/02/03 21:39:54;;;;;;;8.73;7.05;;;8.10;99.90;;;;;;4990012;28;20057;-50
2022/02/03 21:42:21;;;;;;;8.65;7.35;;;8.10;99.90;;;;;;4990275;28;20031;-47
2022/02/03 21:44:46;;;;;;;8.00;6.97;;;8.10;99.90;;;;;;4989840;28;20106;-41
2022/02/03 21:47:12;;;;;;;11.70;7.50;;;8.10;99.90;;;;;;5003193;28;20108;-49
2022/02/03 21:49:37;;;;;;;9.27;7.35;;;8.10;99.90;;;;;;5008577;28;20493;-49
2022/02/03 21:52:03;;;;;;;8.40;7.03;;;8.10;99.90;;;;;;5008932;28;20037;-48
2022/02/03 21:54:34;;;;;;;10.57;8.00;;;8.10;99.90;;;;;;5009176;28;20065;-45
2022/02/03 21:57:00;;;;;;;11.30;8.32;;;8.10;99.90;;;;;;5007438;28;20124;-45
2022/02/03 21:59:26;;;;;;;10.77;7.55;;;8.10;99.90;;;;;;5007109;28;20137;-50
2022/02/03 22:01:51;;;;;;;10.35;8.23;;;8.10;99.90;;;;;;5008340;28;20124;-44
2022/02/03 22:04:17;;;;;;;10.30;8.35;;;8.00;99.90;;;;;;5007788;28;20037;-48
2022/02/03 22:06:42;;;;;;;11.82;8.88;;;8.10;99.90;;;;;;5008146;28;20030;-45
2022/02/03 22:09:08;;;;;;;15.15;9.27;;;8.10;99.90;;;;;;5000266;28;20426;-48
2022/02/03 22:11:34;;;;;;;11.35;9.40;;;8.10;99.90;;;;;;4989219;28;20189;-48
2022/02/03 22:14:00;;;;;;;16.70;9.32;;;8.00;99.90;;;;;;5002657;28;20022;-48
2022/02/03 22:16:27;;;;;;;11.18;8.93;;;8.00;99.90;;;;;;5008543;28;20080;-51
2022/02/03 22:18:53;;;;;;;11.30;8.82;;;7.90;99.90;;;;;;5008665;28;20382;-47
2022/02/03 22:45:48;;;;;;;9.30;8.20;;;7.70;99.90;;;;;;5002926;28;20089;-46
2022/02/03 22:48:24;;;;;;;11.77;7.65;;;7.70;99.90;;;;;;4988881;28;20081;-47
2022/02/03 22:50:51;;;;;;;14.27;8.82;;;7.70;99.90;;;;;;4988762;28;20398;-48
2022/02/03 22:53:17;;;;;;;9.88;8.18;;;7.70;99.90;;;;;;4989530;28;20032;-48
2022/02/03 22:55:43;;;;;;;10.70;7.32;;;7.80;99.90;;;;;;4988120;28;20035;-52
2022/02/03 22:58:31;;;;;;;10.15;8.25;;;7.80;99.90;;;;;;4989517;28;20030;-50
2022/02/03 23:00:59;;;;;;;10.38;7.90;;;7.70;99.90;;;;;;4985217;28;20033;-49
2022/02/03 23:03:30;;;;;;;9.52;7.75;;;7.80;99.90;;;;;;4992049;28;20510;-51
2022/02/03 23:05:56;;;;;;;11.63;7.90;;;7.80;99.90;;;;;;4992855;28;20022;-44
2022/02/03 23:08:30;;;;;;;9.30;7.68;;;7.80;99.90;;;;;;5025749;23;20108;-45
2022/02/03 23:13:56;;;;;;;8.40;7.30;;;7.90;99.90;;;;;;5015420;28;20022;-46
2022/02/03 23:17:04;;;;;;;9.63;7.97;;;7.80;99.90;;;;;;5014624;28;20030;-46
2022/02/03 23:21:49;;;;;;;12.13;7.95;;;7.90;99.90;;;;;;4999699;28;20512;-42
2022/02/03 23:24:16;;;;;;;8.95;7.10;;;7.90;99.90;;;;;;4994998;28;20037;-45
2022/02/03 23:26:43;;;;;;;12.80;8.05;;;7.80;99.90;;;;;;4995489;28;20386;-47